aviador You're here:

KINT Decoded Metar

WINSTON-SALEM in NC, USA
Report Time2018-06-17 20:54:00
UTC Time2018-06-17 21:40:50
Flight Rules vfr VFR
Wind050° at 05 kt
W.Decomp.*RWY 04: 4.8 kt HW 1.5 kt RCW
RWY 33: 0.3 kt HW 5.0 kt RCW
W.Rank050° ranks 4
Current wind is below 050° avg. (6.2)
Visibility9999 m
Phenomena:N/A
Clouds:Few 070 Hf
Scattered 085 Hf
Expected CloudBase > 6,400 ft AGL from Temp-Dew spread
CeilingNone
Temp34°C (ISA +21)
Dew Point18°C (39% RH)
Heat Index35.2°C
QNH1019 hPa
Density Alt3,402 ft
Elevation955 ft
Report Wrong Elevation
Raw Report
KINT 172054Z 05005KT 10SM FEW070 SCT085 34/18 A3010 RMK AO2 SLP177
T03390178 56012=

Extra information for KINT:More info

Metar Taf Metar & Taf Last 4 Metars F.Rules Stats Wind Profile Meteogram Temp Stats Airport Information Weather charts Add Link Nearby VenuesMetar ALERT Operation Metar Decoded Social comments

AIRNAV info for KINT